sensor_id;sensor_type;location;lat;lon;timestamp;P1;durP1;ratioP1;P2;durP2;ratioP2
11016;SDS011;54687;50.800;6.772;2023-07-09T00:00:06;8.68;;;6.43;;
11016;SDS011;54687;50.800;6.772;2023-07-09T00:02:40;7.10;;;6.40;;
11016;SDS011;54687;50.800;6.772;2023-07-09T00:05:08;8.38;;;6.78;;
11016;SDS011;54687;50.800;6.772;2023-07-09T00:07:37;7.53;;;6.72;;
11016;SDS011;54687;50.800;6.772;2023-07-09T00:10:05;10.38;;;7.07;;
11016;SDS011;54687;50.800;6.772;2023-07-09T00:12:39;7.82;;;7.07;;
11016;SDS011;54687;50.800;6.772;2023-07-09T00:15:09;7.35;;;6.22;;
11016;SDS011;54687;50.800;6.772;2023-07-09T00:17:37;8.57;;;6.38;;
11016;SDS011;54687;50.800;6.772;2023-07-09T00:20:05;8.02;;;6.45;;
11016;SDS011;54687;50.800;6.772;2023-07-09T00:22:38;10.13;;;6.95;;
11016;SDS011;54687;50.800;6.772;2023-07-09T00:25:05;9.95;;;6.95;;
11016;SDS011;54687;50.800;6.772;2023-07-09T00:27:34;11.40;;;6.90;;
11016;SDS011;54687;50.800;6.772;2023-07-09T00:30:00;9.52;;;7.13;;
11016;SDS011;54687;50.800;6.772;2023-07-09T00:32:30;7.30;;;6.47;;
11016;SDS011;54687;50.800;6.772;2023-07-09T00:35:00;7.68;;;6.75;;
11016;SDS011;54687;50.800;6.772;2023-07-09T00:37:29;9.25;;;7.05;;
11016;SDS011;54687;50.800;6.772;2023-07-09T00:39:56;8.82;;;6.55;;
11016;SDS011;54687;50.800;6.772;2023-07-09T00:42:23;7.53;;;6.82;;
11016;SDS011;54687;50.800;6.772;2023-07-09T00:44:50;10.50;;;6.82;;
11016;SDS011;54687;50.800;6.772;2023-07-09T00:47:21;9.32;;;6.80;;
11016;SDS011;54687;50.800;6.772;2023-07-09T00:49:53;9.13;;;6.55;;
11016;SDS011;54687;50.800;6.772;2023-07-09T00:52:31;10.63;;;7.28;;
11016;SDS011;54687;50.800;6.772;2023-07-09T00:55:02;9.65;;;6.82;;
11016;SDS011;54687;50.800;6.772;2023-07-09T00:57:32;10.27;;;7.28;;
11016;SDS011;54687;50.800;6.772;2023-07-09T01:00:04;11.40;;;7.63;;
11016;SDS011;54687;50.800;6.772;2023-07-09T01:02:35;10.23;;;6.68;;
11016;SDS011;54687;50.800;6.772;2023-07-09T01:05:03;7.80;;;6.68;;
11016;SDS011;54687;50.800;6.772;2023-07-09T01:07:31;9.27;;;7.25;;
11016;SDS011;54687;50.800;6.772;2023-07-09T01:09:59;8.77;;;7.20;;
11016;SDS011;54687;50.800;6.772;2023-07-09T01:12:26;11.45;;;7.18;;
11016;SDS011;54687;50.800;6.772;2023-07-09T01:14:53;12.18;;;7.43;;
11016;SDS011;54687;50.800;6.772;2023-07-09T01:17:24;8.25;;;6.93;;
11016;SDS011;54687;50.800;6.772;2023-07-09T01:19:53;10.27;;;7.18;;
11016;SDS011;54687;50.800;6.772;2023-07-09T01:22:22;7.45;;;6.65;;
11016;SDS011;54687;50.800;6.772;2023-07-09T01:25:00;7.65;;;6.95;;
11016;SDS011;54687;50.800;6.772;2023-07-09T01:27:29;9.05;;;7.03;;
11016;SDS011;54687;50.800;6.772;2023-07-09T01:29:59;7.30;;;6.60;;
11016;SDS011;54687;50.800;6.772;2023-07-09T01:32:27;9.23;;;7.43;;
11016;SDS011;54687;50.800;6.772;2023-07-09T01:34:57;7.25;;;6.65;;
11016;SDS011;54687;50.800;6.772;2023-07-09T01:37:32;7.65;;;6.95;;
11016;SDS011;54687;50.800;6.772;2023-07-09T01:39:59;8.73;;;6.90;;
11016;SDS011;54687;50.800;6.772;2023-07-09T01:42:26;10.30;;;7.25;;
11016;SDS011;54687;50.800;6.772;2023-07-09T01:44:53;9.45;;;6.90;;
11016;SDS011;54687;50.800;6.772;2023-07-09T01:47:21;8.43;;;6.30;;
11016;SDS011;54687;50.800;6.772;2023-07-09T01:49:48;8.55;;;6.60;;
11016;SDS011;54687;50.800;6.772;2023-07-09T01:52:15;9.15;;;6.45;;
11016;SDS011;54687;50.800;6.772;2023-07-09T01:54:45;8.52;;;6.57;;
11016;SDS011;54687;50.800;6.772;2023-07-09T01:57:16;7.60;;;6.78;;
11016;SDS011;54687;50.800;6.772;2023-07-09T01:59:48;7.43;;;6.72;;
11016;SDS011;54687;50.800;6.772;2023-07-09T02:02:15;7.28;;;6.63;;
11016;SDS011;54687;50.800;6.772;2023-07-09T02:04:45;7.15;;;6.45;;
11016;SDS011;54687;50.800;6.772;2023-07-09T02:07:12;7.22;;;6.53;;
11016;SDS011;54687;50.800;6.772;2023-07-09T02:09:40;7.45;;;6.75;;
11016;SDS011;54687;50.800;6.772;2023-07-09T02:12:09;8.02;;;6.53;;
11016;SDS011;54687;50.800;6.772;2023-07-09T02:14:36;7.97;;;7.13;;
11016;SDS011;54687;50.800;6.772;2023-07-09T02:17:03;9.60;;;7.40;;
11016;SDS011;54687;50.800;6.772;2023-07-09T02:19:30;7.97;;;7.18;;
11016;SDS011;54687;50.800;6.772;2023-07-09T02:21:57;8.07;;;7.32;;
11016;SDS011;54687;50.800;6.772;2023-07-09T02:24:24;8.55;;;7.03;;
11016;SDS011;54687;50.800;6.772;2023-07-09T02:26:52;8.02;;;7.22;;
11016;SDS011;54687;50.800;6.772;2023-07-09T02:29:20;8.20;;;7.43;;
11016;SDS011;54687;50.800;6.772;2023-07-09T02:31:48;7.90;;;7.10;;
11016;SDS011;54687;50.800;6.772;2023-07-09T02:34:16;7.22;;;6.60;;
11016;SDS011;54687;50.800;6.772;2023-07-09T02:36:42;8.10;;;7.30;;
11016;SDS011;54687;50.800;6.772;2023-07-09T02:39:09;8.23;;;6.85;;
11016;SDS011;54687;50.800;6.772;2023-07-09T02:41:36;7.82;;;6.95;;
11016;SDS011;54687;50.800;6.772;2023-07-09T02:44:03;7.95;;;6.65;;
11016;SDS011;54687;50.800;6.772;2023-07-09T02:46:31;10.80;;;7.28;;
11016;SDS011;54687;50.800;6.772;2023-07-09T02:48:58;9.40;;;6.95;;
11016;SDS011;54687;50.800;6.772;2023-07-09T02:51:25;8.73;;;7.10;;
11016;SDS011;54687;50.800;6.772;2023-07-09T02:53:53;8.38;;;7.57;;
11016;SDS011;54687;50.800;6.772;2023-07-09T02:56:20;8.20;;;6.88;;
11016;SDS011;54687;50.800;6.772;2023-07-09T02:58:46;7.38;;;6.68;;
11016;SDS011;54687;50.800;6.772;2023-07-09T03:01:13;7.75;;;6.97;;
11016;SDS011;54687;50.800;6.772;2023-07-09T03:03:41;8.23;;;7.43;;
11016;SDS011;54687;50.800;6.772;2023-07-09T03:06:08;9.07;;;7.05;;
11016;SDS011;54687;50.800;6.772;2023-07-09T03:08:35;7.32;;;6.57;;
11016;SDS011;54687;50.800;6.772;2023-07-09T03:11:07;9.07;;;7.25;;
11016;SDS011;54687;50.800;6.772;2023-07-09T03:13:35;7.72;;;7.03;;
11016;SDS011;54687;50.800;6.772;2023-07-09T03:16:02;8.40;;;6.90;;
11016;SDS011;54687;50.800;6.772;2023-07-09T03:18:28;8.93;;;7.45;;
11016;SDS011;54687;50.800;6.772;2023-07-09T03:20:56;9.27;;;7.20;;
11016;SDS011;54687;50.800;6.772;2023-07-09T03:23:24;8.27;;;7.05;;
11016;SDS011;54687;50.800;6.772;2023-07-09T03:25:52;10.30;;;7.20;;
11016;SDS011;54687;50.800;6.772;2023-07-09T03:28:18;9.77;;;7.60;;
11016;SDS011;54687;50.800;6.772;2023-07-09T03:30:46;7.88;;;7.00;;
11016;SDS011;54687;50.800;6.772;2023-07-09T03:33:13;9.45;;;7.50;;
11016;SDS011;54687;50.800;6.772;2023-07-09T03:35:41;10.57;;;7.20;;
11016;SDS011;54687;50.800;6.772;2023-07-09T03:38:09;8.63;;;6.70;;
11016;SDS011;54687;50.800;6.772;2023-07-09T03:40:37;7.93;;;7.10;;
11016;SDS011;54687;50.800;6.772;2023-07-09T03:43:04;7.75;;;6.93;;
11016;SDS011;54687;50.800;6.772;2023-07-09T03:45:31;7.25;;;6.53;;
11016;SDS011;54687;50.800;6.772;2023-07-09T03:47:59;10.45;;;6.95;;
11016;SDS011;54687;50.800;6.772;2023-07-09T03:50:25;9.98;;;6.90;;
11016;SDS011;54687;50.800;6.772;2023-07-09T03:52:52;7.95;;;7.15;;
11016;SDS011;54687;50.800;6.772;2023-07-09T03:55:20;9.25;;;7.07;;
11016;SDS011;54687;50.800;6.772;2023-07-09T03:57:47;7.93;;;6.53;;
11016;SDS011;54687;50.800;6.772;2023-07-09T04:00:14;8.48;;;6.93;;
11016;SDS011;54687;50.800;6.772;2023-07-09T04:02:41;8.35;;;7.35;;
11016;SDS011;54687;50.800;6.772;2023-07-09T04:05:08;9.57;;;7.10;;
11016;SDS011;54687;50.800;6.772;2023-07-09T04:07:35;8.93;;;7.40;;
11016;SDS011;54687;50.800;6.772;2023-07-09T04:10:04;7.43;;;6.55;;
11016;SDS011;54687;50.800;6.772;2023-07-09T04:12:33;8.25;;;6.97;;
11016;SDS011;54687;50.800;6.772;2023-07-09T04:15:02;7.25;;;6.60;;
11016;SDS011;54687;50.800;6.772;2023-07-09T04:17:29;9.68;;;7.03;;
11016;SDS011;54687;50.800;6.772;2023-07-09T04:19:55;12.63;;;7.20;;
11016;SDS011;54687;50.800;6.772;2023-07-09T04:22:22;11.38;;;7.50;;
11016;SDS011;54687;50.800;6.772;2023-07-09T04:24:48;8.32;;;7.18;;
11016;SDS011;54687;50.800;6.772;2023-07-09T04:27:15;7.40;;;6.65;;
11016;SDS011;54687;50.800;6.772;2023-07-09T04:29:43;7.82;;;7.05;;
11016;SDS011;54687;50.800;6.772;2023-07-09T04:32:12;8.10;;;6.40;;
11016;SDS011;54687;50.800;6.772;2023-07-09T04:34:40;8.95;;;6.90;;
11016;SDS011;54687;50.800;6.772;2023-07-09T04:37:07;8.20;;;7.20;;
11016;SDS011;54687;50.800;6.772;2023-07-09T04:39:35;7.57;;;6.40;;
11016;SDS011;54687;50.800;6.772;2023-07-09T04:42:01;7.00;;;6.28;;
11016;SDS011;54687;50.800;6.772;2023-07-09T04:44:28;7.65;;;6.38;;
11016;SDS011;54687;50.800;6.772;2023-07-09T04:46:56;7.68;;;6.70;;
11016;SDS011;54687;50.800;6.772;2023-07-09T04:49:23;9.93;;;7.10;;
11016;SDS011;54687;50.800;6.772;2023-07-09T04:51:49;11.20;;;6.82;;
11016;SDS011;54687;50.800;6.772;2023-07-09T04:54:16;10.75;;;6.85;;
11016;SDS011;54687;50.800;6.772;2023-07-09T04:56:42;12.95;;;6.75;;
11016;SDS011;54687;50.800;6.772;2023-07-09T04:59:09;8.85;;;6.35;;
11016;SDS011;54687;50.800;6.772;2023-07-09T05:01:36;10.38;;;7.50;;
11016;SDS011;54687;50.800;6.772;2023-07-09T05:04:04;10.32;;;6.53;;
11016;SDS011;54687;50.800;6.772;2023-07-09T05:06:32;9.15;;;6.10;;
11016;SDS011;54687;50.800;6.772;2023-07-09T05:08:59;8.02;;;6.32;;
11016;SDS011;54687;50.800;6.772;2023-07-09T05:11:25;8.65;;;6.10;;
11016;SDS011;54687;50.800;6.772;2023-07-09T05:13:55;10.48;;;6.45;;
11016;SDS011;54687;50.800;6.772;2023-07-09T05:16:21;8.48;;;6.25;;
11016;SDS011;54687;50.800;6.772;2023-07-09T05:18:48;9.00;;;6.25;;
11016;SDS011;54687;50.800;6.772;2023-07-09T05:21:16;9.43;;;6.65;;
11016;SDS011;54687;50.800;6.772;2023-07-09T05:23:42;9.07;;;6.43;;
11016;SDS011;54687;50.800;6.772;2023-07-09T05:26:09;7.75;;;6.53;;
11016;SDS011;54687;50.800;6.772;2023-07-09T05:28:35;9.52;;;6.43;;
11016;SDS011;54687;50.800;6.772;2023-07-09T05:31:02;8.85;;;5.85;;
11016;SDS011;54687;50.800;6.772;2023-07-09T05:33:30;11.45;;;6.43;;
11016;SDS011;54687;50.800;6.772;2023-07-09T05:35:57;10.10;;;6.20;;
11016;SDS011;54687;50.800;6.772;2023-07-09T05:38:25;9.52;;;6.07;;
11016;SDS011;54687;50.800;6.772;2023-07-09T05:40:58;6.78;;;5.68;;
11016;SDS011;54687;50.800;6.772;2023-07-09T05:43:26;6.47;;;5.82;;
11016;SDS011;54687;50.800;6.772;2023-07-09T05:45:52;8.10;;;6.15;;
11016;SDS011;54687;50.800;6.772;2023-07-09T05:48:19;8.60;;;5.57;;
11016;SDS011;54687;50.800;6.772;2023-07-09T05:50:45;8.73;;;5.70;;
11016;SDS011;54687;50.800;6.772;2023-07-09T05:53:14;5.95;;;5.45;;
11016;SDS011;54687;50.800;6.772;2023-07-09T05:55:42;6.05;;;5.53;;
11016;SDS011;54687;50.800;6.772;2023-07-09T05:58:09;9.05;;;5.63;;
11016;SDS011;54687;50.800;6.772;2023-07-09T06:00:35;8.82;;;6.22;;
11016;SDS011;54687;50.800;6.772;2023-07-09T06:03:02;9.48;;;5.53;;
11016;SDS011;54687;50.800;6.772;2023-07-09T06:05:32;7.13;;;5.43;;
11016;SDS011;54687;50.800;6.772;2023-07-09T06:07:58;12.27;;;6.32;;
11016;SDS011;54687;50.800;6.772;2023-07-09T06:10:25;6.80;;;5.82;;
11016;SDS011;54687;50.800;6.772;2023-07-09T06:12:53;10.43;;;6.15;;
11016;SDS011;54687;50.800;6.772;2023-07-09T06:15:20;9.15;;;5.53;;
11016;SDS011;54687;50.800;6.772;2023-07-09T06:17:47;7.05;;;5.85;;
11016;SDS011;54687;50.800;6.772;2023-07-09T06:20:14;6.30;;;5.65;;
11016;SDS011;54687;50.800;6.772;2023-07-09T06:22:40;7.60;;;5.63;;
11016;SDS011;54687;50.800;6.772;2023-07-09T06:25:07;5.85;;;5.32;;
11016;SDS011;54687;50.800;6.772;2023-07-09T06:27:34;7.53;;;5.07;;
11016;SDS011;54687;50.800;6.772;2023-07-09T06:30:02;7.32;;;5.28;;
11016;SDS011;54687;50.800;6.772;2023-07-09T06:32:30;5.72;;;5.22;;
11016;SDS011;54687;50.800;6.772;2023-07-09T06:34:56;5.78;;;5.18;;
11016;SDS011;54687;50.800;6.772;2023-07-09T06:37:23;6.80;;;5.13;;
11016;SDS011;54687;50.800;6.772;2023-07-09T06:39:50;8.20;;;4.95;;
11016;SDS011;54687;50.800;6.772;2023-07-09T06:42:16;6.85;;;5.25;;
11016;SDS011;54687;50.800;6.772;2023-07-09T06:44:43;6.40;;;5.03;;
11016;SDS011;54687;50.800;6.772;2023-07-09T06:47:11;7.93;;;5.70;;
11016;SDS011;54687;50.800;6.772;2023-07-09T06:49:37;7.78;;;5.07;;
11016;SDS011;54687;50.800;6.772;2023-07-09T06:52:04;7.32;;;4.75;;
11016;SDS011;54687;50.800;6.772;2023-07-09T06:54:33;7.38;;;5.18;;
11016;SDS011;54687;50.800;6.772;2023-07-09T06:56:59;6.40;;;4.88;;
11016;SDS011;54687;50.800;6.772;2023-07-09T06:59:26;5.45;;;4.63;;
11016;SDS011;54687;50.800;6.772;2023-07-09T07:01:52;7.05;;;4.70;;
11016;SDS011;54687;50.800;6.772;2023-07-09T07:04:21;5.22;;;4.65;;
11016;SDS011;54687;50.800;6.772;2023-07-09T07:06:47;7.13;;;4.70;;
11016;SDS011;54687;50.800;6.772;2023-07-09T07:09:14;7.15;;;4.57;;
11016;SDS011;54687;50.800;6.772;2023-07-09T07:11:40;6.47;;;4.82;;
11016;SDS011;54687;50.800;6.772;2023-07-09T07:14:07;6.45;;;5.20;;
11016;SDS011;54687;50.800;6.772;2023-07-09T07:16:34;6.15;;;4.88;;
11016;SDS011;54687;50.800;6.772;2023-07-09T07:19:00;4.95;;;4.53;;
11016;SDS011;54687;50.800;6.772;2023-07-09T07:21:28;5.00;;;4.50;;
11016;SDS011;54687;50.800;6.772;2023-07-09T07:23:55;5.28;;;4.82;;
11016;SDS011;54687;50.800;6.772;2023-07-09T07:26:21;5.45;;;4.50;;
11016;SDS011;54687;50.800;6.772;2023-07-09T07:28:48;7.28;;;4.82;;
11016;SDS011;54687;50.800;6.772;2023-07-09T07:31:15;6.45;;;5.55;;
11016;SDS011;54687;50.800;6.772;2023-07-09T07:33:42;6.68;;;5.43;;
11016;SDS011;54687;50.800;6.772;2023-07-09T07:36:09;5.82;;;5.15;;
11016;SDS011;54687;50.800;6.772;2023-07-09T07:38:37;6.68;;;5.07;;
11016;SDS011;54687;50.800;6.772;2023-07-09T07:41:04;5.53;;;5.00;;
11016;SDS011;54687;50.800;6.772;2023-07-09T07:43:31;7.30;;;5.38;;
11016;SDS011;54687;50.800;6.772;2023-07-09T07:45:57;5.60;;;4.82;;
11016;SDS011;54687;50.800;6.772;2023-07-09T07:48:24;6.88;;;5.70;;
11016;SDS011;54687;50.800;6.772;2023-07-09T07:50:50;5.80;;;5.22;;
11016;SDS011;54687;50.800;6.772;2023-07-09T07:53:17;6.63;;;5.95;;
11016;SDS011;54687;50.800;6.772;2023-07-09T07:55:45;6.10;;;5.00;;
11016;SDS011;54687;50.800;6.772;2023-07-09T07:58:12;6.35;;;5.25;;
11016;SDS011;54687;50.800;6.772;2023-07-09T08:00:39;6.22;;;5.60;;
11016;SDS011;54687;50.800;6.772;2023-07-09T08:03:06;7.90;;;5.47;;
11016;SDS011;54687;50.800;6.772;2023-07-09T08:05:33;5.72;;;5.22;;
11016;SDS011;54687;50.800;6.772;2023-07-09T08:07:59;5.90;;;5.22;;
11016;SDS011;54687;50.800;6.772;2023-07-09T08:10:26;6.15;;;5.03;;
11016;SDS011;54687;50.800;6.772;2023-07-09T08:12:54;6.20;;;4.82;;
11016;SDS011;54687;50.800;6.772;2023-07-09T08:15:22;6.07;;;5.43;;
11016;SDS011;54687;50.800;6.772;2023-07-09T08:17:49;6.40;;;5.00;;
11016;SDS011;54687;50.800;6.772;2023-07-09T08:20:15;7.70;;;5.00;;
11016;SDS011;54687;50.800;6.772;2023-07-09T08:22:42;5.68;;;5.18;;
11016;SDS011;54687;50.800;6.772;2023-07-09T08:25:09;5.65;;;5.10;;
11016;SDS011;54687;50.800;6.772;2023-07-09T08:27:35;6.47;;;5.07;;
11016;SDS011;54687;50.800;6.772;2023-07-09T08:30:04;5.80;;;5.07;;
11016;SDS011;54687;50.800;6.772;2023-07-09T08:32:31;8.02;;;5.20;;
11016;SDS011;54687;50.800;6.772;2023-07-09T08:34:58;5.47;;;4.97;;
11016;SDS011;54687;50.800;6.772;2023-07-09T08:37:24;6.00;;;5.25;;
11016;SDS011;54687;50.800;6.772;2023-07-09T08:39:51;6.75;;;5.53;;
11016;SDS011;54687;50.800;6.772;2023-07-09T08:42:20;5.38;;;4.88;;
11016;SDS011;54687;50.800;6.772;2023-07-09T08:45:00;6.32;;;5.72;;
11016;SDS011;54687;50.800;6.772;2023-07-09T08:47:37;7.15;;;5.25;;
11016;SDS011;54687;50.800;6.772;2023-07-09T08:50:13;5.50;;;5.00;;
11016;SDS011;54687;50.800;6.772;2023-07-09T08:52:43;5.82;;;5.18;;
11016;SDS011;54687;50.800;6.772;2023-07-09T08:55:12;9.13;;;5.15;;
11016;SDS011;54687;50.800;6.772;2023-07-09T08:57:42;5.43;;;4.93;;
11016;SDS011;54687;50.800;6.772;2023-07-09T09:00:15;16.60;;;7.47;;
11016;SDS011;54687;50.800;6.772;2023-07-09T09:02:49;8.57;;;5.50;;
11016;SDS011;54687;50.800;6.772;2023-07-09T09:05:19;6.32;;;4.90;;
11016;SDS011;54687;50.800;6.772;2023-07-09T09:07:49;5.65;;;4.90;;
11016;SDS011;54687;50.800;6.772;2023-07-09T09:10:23;5.53;;;5.00;;
11016;SDS011;54687;50.800;6.772;2023-07-09T09:12:59;7.13;;;5.05;;
11016;SDS011;54687;50.800;6.772;2023-07-09T09:15:33;5.00;;;4.50;;
11016;SDS011;54687;50.800;6.772;2023-07-09T09:18:10;5.35;;;4.82;;
11016;SDS011;54687;50.800;6.772;2023-07-09T09:20:45;5.53;;;5.03;;
11016;SDS011;54687;50.800;6.772;2023-07-09T09:23:15;4.78;;;4.38;;
11016;SDS011;54687;50.800;6.772;2023-07-09T09:25:43;5.53;;;4.88;;
11016;SDS011;54687;50.800;6.772;2023-07-09T09:28:15;4.90;;;4.40;;
11016;SDS011;54687;50.800;6.772;2023-07-09T09:30:43;6.03;;;4.53;;
11016;SDS011;54687;50.800;6.772;2023-07-09T09:33:10;6.90;;;4.25;;
11016;SDS011;54687;50.800;6.772;2023-07-09T09:35:38;4.85;;;4.32;;
11016;SDS011;54687;50.800;6.772;2023-07-09T09:38:10;6.78;;;4.70;;
11016;SDS011;54687;50.800;6.772;2023-07-09T09:40:38;5.63;;;4.93;;
11016;SDS011;54687;50.800;6.772;2023-07-09T09:43:11;7.47;;;5.07;;
11016;SDS011;54687;50.800;6.772;2023-07-09T09:45:40;5.57;;;5.15;;
11016;SDS011;54687;50.800;6.772;2023-07-09T09:48:15;5.38;;;4.70;;
11016;SDS011;54687;50.800;6.772;2023-07-09T09:50:44;5.75;;;4.53;;
11016;SDS011;54687;50.800;6.772;2023-07-09T09:53:16;6.15;;;4.70;;
11016;SDS011;54687;50.800;6.772;2023-07-09T09:55:45;7.78;;;4.05;;
11016;SDS011;54687;50.800;6.772;2023-07-09T09:58:13;5.75;;;3.97;;
11016;SDS011;54687;50.800;6.772;2023-07-09T10:00:46;4.57;;;3.70;;
11016;SDS011;54687;50.800;6.772;2023-07-09T10:03:15;4.68;;;3.70;;
11016;SDS011;54687;50.800;6.772;2023-07-09T10:05:43;4.53;;;3.90;;
11016;SDS011;54687;50.800;6.772;2023-07-09T10:08:16;6.40;;;3.88;;
11016;SDS011;54687;50.800;6.772;2023-07-09T10:10:50;5.85;;;3.80;;
11016;SDS011;54687;50.800;6.772;2023-07-09T10:13:23;7.70;;;4.00;;
11016;SDS011;54687;50.800;6.772;2023-07-09T10:15:59;4.15;;;3.75;;
11016;SDS011;54687;50.800;6.772;2023-07-09T10:18:34;4.95;;;4.40;;
11016;SDS011;54687;50.800;6.772;2023-07-09T10:21:14;5.38;;;4.20;;
11016;SDS011;54687;50.800;6.772;2023-07-09T10:23:47;8.65;;;4.32;;
11016;SDS011;54687;50.800;6.772;2023-07-09T10:26:22;6.10;;;4.00;;
11016;SDS011;54687;50.800;6.772;2023-07-09T10:28:55;4.80;;;4.15;;
11016;SDS011;54687;50.800;6.772;2023-07-09T10:31:33;4.72;;;4.28;;
11016;SDS011;54687;50.800;6.772;2023-07-09T10:34:12;6.22;;;4.00;;
11016;SDS011;54687;50.800;6.772;2023-07-09T10:37:04;4.80;;;4.05;;
11016;SDS011;54687;50.800;6.772;2023-07-09T10:39:40;4.65;;;4.05;;
11016;SDS011;54687;50.800;6.772;2023-07-09T10:42:12;5.68;;;4.18;;
11016;SDS011;54687;50.800;6.772;2023-07-09T10:44:48;4.55;;;3.90;;
11016;SDS011;54687;50.800;6.772;2023-07-09T10:47:24;5.20;;;3.88;;
11016;SDS011;54687;50.800;6.772;2023-07-09T10:49:56;4.70;;;3.88;;
11016;SDS011;54687;50.800;6.772;2023-07-09T10:52:25;4.97;;;3.88;;
11016;SDS011;54687;50.800;6.772;2023-07-09T10:54:57;6.88;;;4.45;;
11016;SDS011;54687;50.800;6.772;2023-07-09T10:57:29;6.53;;;3.92;;
11016;SDS011;54687;50.800;6.772;2023-07-09T11:00:00;5.90;;;3.92;;
11016;SDS011;54687;50.800;6.772;2023-07-09T11:02:29;4.57;;;4.03;;
11016;SDS011;54687;50.800;6.772;2023-07-09T11:04:59;4.75;;;4.25;;
11016;SDS011;54687;50.800;6.772;2023-07-09T11:07:28;4.45;;;3.88;;
11016;SDS011;54687;50.800;6.772;2023-07-09T11:09:58;5.80;;;4.82;;
11016;SDS011;54687;50.800;6.772;2023-07-09T11:12:29;6.50;;;4.15;;
11016;SDS011;54687;50.800;6.772;2023-07-09T11:15:00;4.57;;;3.80;;
11016;SDS011;54687;50.800;6.772;2023-07-09T11:17:29;5.15;;;4.03;;
11016;SDS011;54687;50.800;6.772;2023-07-09T11:20:00;6.30;;;4.50;;
11016;SDS011;54687;50.800;6.772;2023-07-09T11:22:37;4.72;;;4.13;;
11016;SDS011;54687;50.800;6.772;2023-07-09T11:25:06;4.35;;;3.95;;
11016;SDS011;54687;50.800;6.772;2023-07-09T11:27:44;5.30;;;4.25;;
11016;SDS011;54687;50.800;6.772;2023-07-09T11:30:22;4.05;;;3.75;;
11016;SDS011;54687;50.800;6.772;2023-07-09T11:32:55;5.88;;;4.43;;
11016;SDS011;54687;50.800;6.772;2023-07-09T11:35:25;5.45;;;4.80;;
11016;SDS011;54687;50.800;6.772;2023-07-09T11:37:53;6.15;;;4.10;;
11016;SDS011;54687;50.800;6.772;2023-07-09T11:40:21;5.50;;;4.15;;
11016;SDS011;54687;50.800;6.772;2023-07-09T11:42:50;5.00;;;4.05;;
11016;SDS011;54687;50.800;6.772;2023-07-09T11:45:20;5.00;;;4.20;;
11016;SDS011;54687;50.800;6.772;2023-07-09T11:50:21;4.50;;;4.10;;
11016;SDS011;54687;50.800;6.772;2023-07-09T11:52:53;4.95;;;4.07;;
11016;SDS011;54687;50.800;6.772;2023-07-09T11:55:26;4.70;;;4.30;;
11016;SDS011;54687;50.800;6.772;2023-07-09T11:57:55;4.65;;;3.75;;
11016;SDS011;54687;50.800;6.772;2023-07-09T12:00:22;4.60;;;4.20;;
11016;SDS011;54687;50.800;6.772;2023-07-09T12:02:50;5.00;;;4.13;;
11016;SDS011;54687;50.800;6.772;2023-07-09T12:05:19;4.55;;;4.00;;
11016;SDS011;54687;50.800;6.772;2023-07-09T12:07:49;4.47;;;4.07;;
11016;SDS011;54687;50.800;6.772;2023-07-09T12:10:19;5.07;;;4.40;;
11016;SDS011;54687;50.800;6.772;2023-07-09T12:12:47;4.70;;;4.25;;
11016;SDS011;54687;50.800;6.772;2023-07-09T12:15:18;5.05;;;3.78;;
11016;SDS011;54687;50.800;6.772;2023-07-09T12:17:55;4.70;;;4.25;;
11016;SDS011;54687;50.800;6.772;2023-07-09T12:20:23;6.90;;;4.60;;
11016;SDS011;54687;50.800;6.772;2023-07-09T12:22:51;5.70;;;4.18;;
11016;SDS011;54687;50.800;6.772;2023-07-09T12:25:20;4.35;;;4.00;;
11016;SDS011;54687;50.800;6.772;2023-07-09T12:27:49;4.80;;;4.18;;
11016;SDS011;54687;50.800;6.772;2023-07-09T12:30:16;5.05;;;4.50;;
11016;SDS011;54687;50.800;6.772;2023-07-09T12:32:43;6.38;;;4.28;;
11016;SDS011;54687;50.800;6.772;2023-07-09T12:35:12;4.93;;;4.53;;
11016;SDS011;54687;50.800;6.772;2023-07-09T12:37:39;6.28;;;4.82;;
11016;SDS011;54687;50.800;6.772;2023-07-09T12:40:11;5.30;;;4.53;;
11016;SDS011;54687;50.800;6.772;2023-07-09T12:42:43;5.70;;;4.57;;
11016;SDS011;54687;50.800;6.772;2023-07-09T12:45:14;6.28;;;4.90;;
11016;SDS011;54687;50.800;6.772;2023-07-09T12:47:42;5.38;;;4.50;;
11016;SDS011;54687;50.800;6.772;2023-07-09T12:50:18;4.40;;;4.00;;
11016;SDS011;54687;50.800;6.772;2023-07-09T12:52:46;6.38;;;4.22;;
11016;SDS011;54687;50.800;6.772;2023-07-09T12:55:20;5.68;;;4.30;;
11016;SDS011;54687;50.800;6.772;2023-07-09T12:57:50;5.63;;;4.30;;
11016;SDS011;54687;50.800;6.772;2023-07-09T13:00:17;5.35;;;4.85;;
11016;SDS011;54687;50.800;6.772;2023-07-09T13:02:44;6.95;;;4.68;;
11016;SDS011;54687;50.800;6.772;2023-07-09T13:05:18;8.38;;;4.60;;
11016;SDS011;54687;50.800;6.772;2023-07-09T13:07:48;8.02;;;4.50;;
11016;SDS011;54687;50.800;6.772;2023-07-09T13:10:17;5.65;;;4.20;;
11016;SDS011;54687;50.800;6.772;2023-07-09T13:12:46;6.43;;;4.53;;
11016;SDS011;54687;50.800;6.772;2023-07-09T13:15:29;6.20;;;4.60;;
11016;SDS011;54687;50.800;6.772;2023-07-09T13:17:58;6.03;;;4.07;;
11016;SDS011;54687;50.800;6.772;2023-07-09T13:20:27;5.38;;;4.25;;
11016;SDS011;54687;50.800;6.772;2023-07-09T13:22:54;4.70;;;4.03;;
11016;SDS011;54687;50.800;6.772;2023-07-09T13:25:22;5.43;;;3.85;;
11016;SDS011;54687;50.800;6.772;2023-07-09T13:27:49;5.20;;;4.07;;
11016;SDS011;54687;50.800;6.772;2023-07-09T13:30:16;6.00;;;4.28;;
11016;SDS011;54687;50.800;6.772;2023-07-09T13:32:45;13.70;;;4.65;;
11016;SDS011;54687;50.800;6.772;2023-07-09T13:35:14;7.65;;;4.88;;
11016;SDS011;54687;50.800;6.772;2023-07-09T13:37:42;7.05;;;4.55;;
11016;SDS011;54687;50.800;6.772;2023-07-09T13:40:10;7.50;;;4.75;;
11016;SDS011;54687;50.800;6.772;2023-07-09T13:42:38;4.88;;;4.47;;
11016;SDS011;54687;50.800;6.772;2023-07-09T13:45:09;6.63;;;4.25;;
11016;SDS011;54687;50.800;6.772;2023-07-09T13:47:45;6.35;;;5.25;;
11016;SDS011;54687;50.800;6.772;2023-07-09T13:50:12;4.70;;;4.30;;
11016;SDS011;54687;50.800;6.772;2023-07-09T13:52:39;4.70;;;4.30;;
11016;SDS011;54687;50.800;6.772;2023-07-09T13:55:09;4.63;;;4.22;;
11016;SDS011;54687;50.800;6.772;2023-07-09T13:57:42;5.88;;;4.22;;
11016;SDS011;54687;50.800;6.772;2023-07-09T14:00:10;4.80;;;4.40;;
11016;SDS011;54687;50.800;6.772;2023-07-09T14:02:37;7.05;;;5.22;;
11016;SDS011;54687;50.800;6.772;2023-07-09T14:05:06;6.97;;;4.82;;
11016;SDS011;54687;50.800;6.772;2023-07-09T14:07:36;5.32;;;4.72;;
11016;SDS011;54687;50.800;6.772;2023-07-09T14:10:05;5.47;;;4.75;;
11016;SDS011;54687;50.800;6.772;2023-07-09T14:12:34;7.50;;;6.85;;
11016;SDS011;54687;50.800;6.772;2023-07-09T14:15:05;8.23;;;5.00;;
11016;SDS011;54687;50.800;6.772;2023-07-09T14:17:38;18.58;;;5.82;;
11016;SDS011;54687;50.800;6.772;2023-07-09T14:20:07;6.95;;;4.70;;
11016;SDS011;54687;50.800;6.772;2023-07-09T14:22:36;11.02;;;5.20;;
11016;SDS011;54687;50.800;6.772;2023-07-09T14:25:05;7.57;;;4.80;;
11016;SDS011;54687;50.800;6.772;2023-07-09T14:27:32;12.70;;;5.72;;
11016;SDS011;54687;50.800;6.772;2023-07-09T14:29:59;5.18;;;4.68;;
11016;SDS011;54687;50.800;6.772;2023-07-09T14:32:30;5.95;;;4.55;;
11016;SDS011;54687;50.800;6.772;2023-07-09T14:35:00;10.52;;;6.07;;
11016;SDS011;54687;50.800;6.772;2023-07-09T14:37:30;7.68;;;5.80;;
11016;SDS011;54687;50.800;6.772;2023-07-09T14:39:57;6.88;;;5.88;;
11016;SDS011;54687;50.800;6.772;2023-07-09T14:42:23;6.22;;;5.60;;
11016;SDS011;54687;50.800;6.772;2023-07-09T14:44:50;11.02;;;6.82;;
11016;SDS011;54687;50.800;6.772;2023-07-09T14:47:17;8.60;;;7.50;;
11016;SDS011;54687;50.800;6.772;2023-07-09T14:49:45;10.38;;;7.75;;
11016;SDS011;54687;50.800;6.772;2023-07-09T14:52:13;8.90;;;8.07;;
11016;SDS011;54687;50.800;6.772;2023-07-09T14:54:44;8.77;;;7.97;;
11016;SDS011;54687;50.800;6.772;2023-07-09T14:57:17;8.00;;;7.20;;